createdAt,value
2019-05-18T00:02:11.871Z,43.80
2019-05-18T00:04:40.094Z,43.95
2019-05-18T00:07:08.327Z,41.97
2019-05-18T00:09:36.557Z,42.62
2019-05-18T00:12:04.785Z,44.42
2019-05-18T00:14:32.993Z,42.33
2019-05-18T00:17:01.228Z,46.02
2019-05-18T00:19:29.459Z,43.17
2019-05-18T00:21:57.670Z,43.65
2019-05-18T00:24:25.896Z,48.10
2019-05-18T00:26:54.107Z,45.83
2019-05-18T00:29:22.390Z,45.45
2019-05-18T00:31:50.627Z,45.63
2019-05-18T00:34:18.866Z,46.60
2019-05-18T00:36:47.082Z,45.40
2019-05-18T00:39:15.297Z,48.83
2019-05-18T00:41:45.454Z,46.83
2019-05-18T00:44:13.508Z,46.63
2019-05-18T00:46:41.732Z,43.68
2019-05-18T00:49:09.946Z,48.50
2019-05-18T00:51:38.164Z,48.95
2019-05-18T00:54:06.386Z,50.33
2019-05-18T00:56:34.669Z,50.70
2019-05-18T00:59:02.897Z,50.00
2019-05-18T01:01:31.117Z,49.33
2019-05-18T01:03:59.352Z,52.53
2019-05-18T01:06:27.601Z,49.88
2019-05-18T01:08:55.812Z,48.68
2019-05-18T01:11:24.022Z,48.30
2019-05-18T01:13:52.243Z,50.70
2019-05-18T01:16:20.465Z,49.90
2019-05-18T01:18:48.679Z,49.30
2019-05-18T01:21:16.914Z,51.25
2019-05-18T01:23:45.140Z,48.10
2019-05-18T01:26:13.446Z,48.20
2019-05-18T01:28:41.680Z,46.42
2019-05-18T01:31:09.989Z,47.50
2019-05-18T01:33:38.204Z,47.17
2019-05-18T01:36:06.436Z,49.75
2019-05-18T01:38:34.661Z,46.03
2019-05-18T01:41:02.910Z,48.55
2019-05-18T01:43:31.104Z,51.08
2019-05-18T01:45:59.352Z,49.90
2019-05-18T01:48:27.561Z,45.70
2019-05-18T01:50:55.779Z,47.05
2019-05-18T01:53:24.092Z,50.33
2019-05-18T01:55:52.315Z,52.70
2019-05-18T01:58:20.526Z,49.23
2019-05-18T02:00:48.760Z,49.63
2019-05-18T02:03:17.002Z,50.83
2019-05-18T02:05:45.236Z,51.42
2019-05-18T02:08:13.448Z,51.83
2019-05-18T02:10:41.665Z,49.65
2019-05-18T02:13:09.917Z,47.33
2019-05-18T02:15:38.181Z,47.27
2019-05-18T02:18:06.378Z,46.13
2019-05-18T02:20:34.601Z,47.70
2019-05-18T02:23:02.839Z,46.65
2019-05-18T02:25:31.062Z,46.20
2019-05-18T02:27:59.277Z,49.50
2019-05-18T02:30:27.501Z,46.68
2019-05-18T02:32:55.709Z,45.55
2019-05-18T02:35:23.923Z,46.85
2019-05-18T02:37:52.147Z,44.85
2019-05-18T02:40:20.373Z,50.63
2019-05-18T02:42:48.582Z,47.38
2019-05-18T02:45:16.797Z,47.48
2019-05-18T02:47:45.030Z,49.33
2019-05-18T02:50:13.362Z,47.95
2019-05-18T02:52:41.597Z,45.55
2019-05-18T02:55:10.496Z,50.98
2019-05-18T02:57:38.702Z,47.50
2019-05-18T03:00:10.096Z,46.70
2019-05-18T03:02:38.317Z,48.47
2019-05-18T03:05:06.920Z,50.25
2019-05-18T03:07:35.132Z,51.05
2019-05-18T03:10:04.642Z,50.95
2019-05-18T03:12:32.881Z,54.53
2019-05-18T03:15:01.089Z,53.78
2019-05-18T03:17:29.306Z,50.60
2019-05-18T03:19:57.542Z,55.35
2019-05-18T03:22:25.795Z,57.17
2019-05-18T03:24:54.023Z,51.63
2019-05-18T03:27:22.230Z,52.17
2019-05-18T03:29:50.560Z,49.20
2019-05-18T03:32:19.388Z,51.78
2019-05-18T03:34:47.618Z,53.20
2019-05-18T03:37:15.856Z,50.17
2019-05-18T03:39:44.104Z,53.60
2019-05-18T03:42:12.326Z,46.77
2019-05-18T03:44:40.537Z,52.60
2019-05-18T03:47:08.760Z,52.00
2019-05-18T03:49:37.003Z,46.40
2019-05-18T03:52:05.227Z,49.30
2019-05-18T03:54:33.426Z,49.18
2019-05-18T03:57:01.653Z,49.40
2019-05-18T03:59:29.879Z,48.00
2019-05-18T04:01:58.117Z,46.75
2019-05-18T04:04:26.350Z,45.38
2019-05-18T04:06:54.565Z,48.70
2019-05-18T04:09:22.787Z,48.87
2019-05-18T04:11:51.100Z,42.10
2019-05-18T04:14:20.066Z,48.96
2019-05-18T04:16:48.308Z,46.75
2019-05-18T04:19:16.564Z,44.03
2019-05-18T04:21:44.777Z,45.05
2019-05-18T04:24:13.000Z,41.85
2019-05-18T04:26:41.260Z,43.45
2019-05-18T04:29:09.448Z,40.17
2019-05-18T04:31:37.709Z,43.35
2019-05-18T04:34:06.033Z,42.30
2019-05-18T04:36:34.258Z,45.92
2019-05-18T04:39:02.534Z,42.13
2019-05-18T04:41:30.711Z,43.47
2019-05-18T04:43:58.940Z,41.42
2019-05-18T04:46:27.275Z,40.33
2019-05-18T04:48:55.457Z,40.70
2019-05-18T04:51:23.697Z,38.15
2019-05-18T04:53:51.914Z,39.88
2019-05-18T04:56:20.150Z,40.33
2019-05-18T04:58:48.355Z,40.12
2019-05-18T05:01:16.571Z,38.40
2019-05-18T05:03:44.886Z,40.12
2019-05-18T05:06:13.175Z,39.55
2019-05-18T05:08:41.395Z,39.70
2019-05-18T05:11:09.625Z,39.10
2019-05-18T05:13:37.865Z,38.58
2019-05-18T05:16:06.080Z,33.48
2019-05-18T05:18:34.309Z,35.33
2019-05-18T05:21:02.539Z,34.75
2019-05-18T05:23:30.770Z,33.80
2019-05-18T05:25:58.999Z,32.40
2019-05-18T05:28:27.199Z,33.28
2019-05-18T05:30:55.426Z,30.60
2019-05-18T05:33:23.639Z,34.85
2019-05-18T05:35:51.865Z,30.50
2019-05-18T05:38:20.122Z,32.83
2019-05-18T05:40:48.312Z,31.10
2019-05-18T05:43:16.555Z,31.30
2019-05-18T05:45:44.806Z,28.92
2019-05-18T05:48:13.040Z,31.93
2019-05-18T05:50:41.254Z,28.83
2019-05-18T05:53:09.486Z,28.50
2019-05-18T05:55:37.747Z,29.67
2019-05-18T05:58:05.917Z,28.05
2019-05-18T06:00:34.137Z,28.32
2019-05-18T06:03:02.367Z,26.83
2019-05-18T06:05:30.587Z,26.73
2019-05-18T06:07:58.797Z,27.40
2019-05-18T06:10:27.074Z,27.17
2019-05-18T06:12:55.330Z,27.32
2019-05-18T06:15:23.486Z,27.45
2019-05-18T06:17:51.724Z,25.65
2019-05-18T06:20:19.932Z,26.85
2019-05-18T06:22:48.147Z,27.10
2019-05-18T06:25:16.425Z,27.35
2019-05-18T06:27:44.599Z,28.60
2019-05-18T06:30:12.809Z,26.27
2019-05-18T06:32:41.037Z,26.00
2019-05-18T06:35:09.292Z,25.82
2019-05-18T06:37:37.504Z,25.30
2019-05-18T06:40:07.568Z,26.33
2019-05-18T06:42:35.862Z,24.80
2019-05-18T06:45:06.329Z,25.95
2019-05-18T06:47:34.548Z,26.47
2019-05-18T06:50:03.282Z,24.43
2019-05-18T06:52:31.498Z,26.82
2019-05-18T06:54:59.708Z,25.57
2019-05-18T06:57:27.943Z,25.77
2019-05-18T06:59:56.188Z,24.20
2019-05-18T07:02:24.423Z,23.57
2019-05-18T07:04:52.631Z,26.10
2019-05-18T07:07:20.870Z,23.45
2019-05-18T07:09:49.095Z,25.27
2019-05-18T07:12:17.344Z,25.65
2019-05-18T07:14:45.589Z,26.65
2019-05-18T07:17:13.791Z,23.22
2019-05-18T07:19:42.055Z,25.20
2019-05-18T07:22:10.278Z,24.82
2019-05-18T07:24:38.519Z,24.40
2019-05-18T07:27:06.803Z,23.20
2019-05-18T07:29:35.070Z,23.30
2019-05-18T07:32:03.269Z,23.25
2019-05-18T07:34:31.485Z,20.72
2019-05-18T07:36:59.706Z,23.67
2019-05-18T07:39:27.997Z,24.70
2019-05-18T07:41:56.219Z,24.72
2019-05-18T07:44:24.442Z,22.00
2019-05-18T07:46:52.738Z,21.62
2019-05-18T07:49:20.947Z,21.23
2019-05-18T07:51:49.176Z,21.87
2019-05-18T07:54:17.396Z,22.07
2019-05-18T07:56:45.627Z,18.92
2019-05-18T07:59:13.882Z,20.35
2019-05-18T08:01:42.118Z,20.08
2019-05-18T08:04:10.336Z,20.00
2019-05-18T08:06:38.627Z,17.92
2019-05-18T08:09:07.901Z,19.42
2019-05-18T08:11:36.204Z,19.67
2019-05-18T08:14:04.417Z,17.90
2019-05-18T08:16:32.644Z,17.55
2019-05-18T08:19:00.863Z,17.80
2019-05-18T08:21:29.109Z,17.37
2019-05-18T08:23:57.318Z,18.40
2019-05-18T08:26:25.587Z,18.00
2019-05-18T08:28:53.805Z,15.95
2019-05-18T08:31:22.027Z,15.43
2019-05-18T08:33:50.253Z,13.93
2019-05-18T08:36:18.550Z,14.03
2019-05-18T08:38:46.755Z,14.45
2019-05-18T08:41:14.979Z,12.70
2019-05-18T08:43:43.218Z,14.20
2019-05-18T08:46:11.433Z,13.88
2019-05-18T08:48:39.751Z,15.32
2019-05-18T08:51:07.987Z,12.40
2019-05-18T08:53:36.204Z,13.22
2019-05-18T08:56:04.422Z,13.22
2019-05-18T08:58:32.659Z,13.20
2019-05-18T09:01:00.873Z,12.63
2019-05-18T09:03:29.106Z,16.77
2019-05-18T09:05:57.343Z,14.18
2019-05-18T09:08:25.543Z,14.63
2019-05-18T09:10:53.780Z,13.80
2019-05-18T09:13:22.031Z,13.58
2019-05-18T09:15:50.499Z,13.93
2019-05-18T09:18:18.785Z,10.72
2019-05-18T09:20:47.116Z,10.38
2019-05-18T09:23:15.331Z,12.07
2019-05-18T09:25:43.545Z,12.60
2019-05-18T09:28:11.775Z,12.33
2019-05-18T09:30:41.380Z,11.28
2019-05-18T09:33:09.693Z,10.72
2019-05-18T09:35:37.909Z,12.40
2019-05-18T09:38:06.124Z,10.53
2019-05-18T09:40:34.343Z,11.50
2019-05-18T09:43:02.613Z,9.23
2019-05-18T09:45:30.828Z,10.65
2019-05-18T09:47:59.043Z,8.73
2019-05-18T09:50:27.358Z,9.08
2019-05-18T09:52:55.567Z,12.78
2019-05-18T09:55:23.780Z,9.78
2019-05-18T09:57:52.008Z,9.13
2019-05-18T10:00:21.872Z,9.93
2019-05-18T10:02:51.767Z,9.68
2019-05-18T10:05:20.304Z,11.15
2019-05-18T10:07:48.716Z,10.48
2019-05-18T10:10:16.915Z,10.03
2019-05-18T10:12:45.152Z,11.15
2019-05-18T10:15:13.890Z,9.68
2019-05-18T10:17:42.115Z,10.58
2019-05-18T10:20:10.332Z,10.40
2019-05-18T10:22:53.101Z,11.77
2019-05-18T10:25:08.533Z,10.53
2019-05-18T10:27:36.736Z,10.10
2019-05-18T10:30:07.001Z,12.07
2019-05-18T10:32:35.181Z,10.15
2019-05-18T10:35:05.759Z,11.53
2019-05-18T10:37:34.086Z,10.03
2019-05-18T10:40:02.785Z,10.53
2019-05-18T10:42:31.070Z,14.93
2019-05-18T10:44:59.332Z,10.40
2019-05-18T10:47:27.555Z,10.17
2019-05-18T10:49:55.770Z,10.23
2019-05-18T10:52:24.018Z,10.50
2019-05-18T10:54:52.224Z,11.28
2019-05-18T10:57:20.421Z,10.30
2019-05-18T10:59:48.736Z,9.73
2019-05-18T11:02:16.965Z,12.53
2019-05-18T11:04:45.190Z,11.15
2019-05-18T11:07:13.415Z,10.58
2019-05-18T11:09:41.821Z,11.38
2019-05-18T11:12:10.024Z,10.63
2019-05-18T11:14:38.261Z,11.25
2019-05-18T11:17:06.449Z,10.90
2019-05-18T11:19:34.673Z,11.68
2019-05-18T11:22:02.886Z,10.30
2019-05-18T11:24:31.120Z,10.25
2019-05-18T11:26:59.331Z,10.15
2019-05-18T11:29:27.599Z,9.70
2019-05-18T11:31:55.872Z,10.32
2019-05-18T11:34:24.126Z,9.68
2019-05-18T11:36:52.365Z,9.63
2019-05-18T11:39:20.584Z,10.10
2019-05-18T11:41:48.790Z,9.63
2019-05-18T11:44:17.050Z,9.05
2019-05-18T11:46:45.253Z,9.88
2019-05-18T11:49:13.510Z,10.05
2019-05-18T11:51:41.750Z,10.82
2019-05-18T11:54:09.964Z,9.20
2019-05-18T11:56:38.187Z,9.80
2019-05-18T11:59:06.436Z,10.32
2019-05-18T12:01:34.647Z,9.63
2019-05-18T12:04:02.862Z,10.63
2019-05-18T12:06:31.107Z,8.63
2019-05-18T12:08:59.327Z,13.93
2019-05-18T12:11:27.599Z,10.10
2019-05-18T12:13:55.756Z,9.35
2019-05-18T12:16:24.001Z,8.90
2019-05-18T12:18:52.237Z,8.10
2019-05-18T12:21:20.446Z,9.28
2019-05-18T12:23:48.654Z,8.33
2019-05-18T12:26:16.871Z,9.60
2019-05-18T12:28:45.352Z,11.63
2019-05-18T12:31:13.568Z,9.50
2019-05-18T12:33:41.793Z,10.63
2019-05-18T12:36:10.056Z,12.05
2019-05-18T12:38:38.285Z,9.23
2019-05-18T12:41:06.566Z,10.40
2019-05-18T12:43:34.780Z,9.28
2019-05-18T12:46:03.021Z,8.80
2019-05-18T12:48:31.229Z,8.23
2019-05-18T12:50:59.446Z,7.72
2019-05-18T12:53:27.707Z,7.00
2019-05-18T12:55:55.914Z,9.15
2019-05-18T12:58:24.136Z,8.15
2019-05-18T13:00:52.434Z,7.83
2019-05-18T13:03:20.669Z,6.83
2019-05-18T13:05:48.877Z,7.03
2019-05-18T13:08:17.099Z,7.33
2019-05-18T13:10:45.323Z,7.12
2019-05-18T13:13:13.617Z,6.53
2019-05-18T13:15:41.813Z,7.00
2019-05-18T13:18:10.015Z,6.12
2019-05-18T13:20:38.291Z,8.45
2019-05-18T13:23:06.496Z,6.42
2019-05-18T13:25:34.709Z,8.73
2019-05-18T13:28:02.945Z,5.90
2019-05-18T13:30:31.150Z,6.08
2019-05-18T13:32:59.364Z,6.55
2019-05-18T13:35:28.390Z,6.12
2019-05-18T13:37:56.603Z,5.22
2019-05-18T13:40:24.820Z,5.00
2019-05-18T13:42:53.053Z,4.42
2019-05-18T13:45:21.332Z,4.80
2019-05-18T13:47:49.565Z,4.62
2019-05-18T13:50:17.921Z,6.62
2019-05-18T13:52:46.153Z,5.92
2019-05-18T13:55:14.379Z,5.95
2019-05-18T13:57:42.619Z,5.28
2019-05-18T14:00:10.849Z,6.95
2019-05-18T14:02:39.107Z,6.22
2019-05-18T14:05:08.341Z,9.13
2019-05-18T14:07:36.578Z,4.70
2019-05-18T14:10:07.686Z,5.70
2019-05-18T14:12:35.886Z,5.47
2019-05-18T14:15:05.750Z,6.22
2019-05-18T14:17:34.017Z,5.47
2019-05-18T14:20:02.245Z,7.40
2019-05-18T14:22:30.431Z,5.83
2019-05-18T14:24:58.647Z,5.92
2019-05-18T14:27:26.869Z,5.35
2019-05-18T14:29:55.092Z,4.70
2019-05-18T14:32:23.350Z,5.30
2019-05-18T14:34:51.563Z,4.85
2019-05-18T14:37:19.772Z,5.08
2019-05-18T14:39:47.992Z,4.58
2019-05-18T14:42:16.196Z,6.45
2019-05-18T14:44:44.412Z,5.40
2019-05-18T14:47:12.613Z,6.97
2019-05-18T14:49:40.831Z,5.87
2019-05-18T14:52:11.971Z,6.20
2019-05-18T14:54:38.980Z,4.97
2019-05-18T14:57:07.258Z,5.22
2019-05-18T14:59:35.489Z,5.10
2019-05-18T15:02:03.735Z,4.60
2019-05-18T15:04:32.000Z,6.03
2019-05-18T15:07:00.215Z,6.12
2019-05-18T15:09:28.453Z,5.40
2019-05-18T15:11:56.653Z,5.95
2019-05-18T15:14:24.863Z,5.13
2019-05-18T15:16:53.306Z,5.67
2019-05-18T15:19:21.593Z,5.55
2019-05-18T15:21:49.790Z,4.90
2019-05-18T15:24:18.011Z,5.85
2019-05-18T15:26:46.259Z,4.95
2019-05-18T15:29:14.469Z,4.78
2019-05-18T15:31:42.887Z,5.20
2019-05-18T15:34:11.107Z,4.30
2019-05-18T15:36:39.311Z,8.68
2019-05-18T15:39:07.583Z,5.00
2019-05-18T15:41:35.793Z,5.67
2019-05-18T15:44:04.014Z,4.58
2019-05-18T15:46:32.218Z,7.12
2019-05-18T15:49:00.606Z,6.58
2019-05-18T15:51:28.879Z,5.05
2019-05-18T15:53:57.117Z,5.03
2019-05-18T15:56:25.321Z,9.65
2019-05-18T15:58:53.526Z,12.73
2019-05-18T16:01:21.753Z,11.55
2019-05-18T16:03:49.961Z,13.00
2019-05-18T16:06:18.214Z,12.90
2019-05-18T16:08:46.427Z,14.27
2019-05-18T16:11:14.657Z,14.35
2019-05-18T16:13:42.906Z,14.60
2019-05-18T16:16:11.137Z,12.15
2019-05-18T16:18:39.343Z,13.88
2019-05-18T16:21:07.561Z,12.35
2019-05-18T16:23:35.770Z,13.53
2019-05-18T16:26:04.002Z,12.73
2019-05-18T16:28:32.243Z,12.40
2019-05-18T16:31:00.575Z,12.33
2019-05-18T16:33:28.787Z,16.70
2019-05-18T16:35:57.007Z,14.38
2019-05-18T16:38:25.257Z,14.58
2019-05-18T16:40:53.484Z,13.55
2019-05-18T16:43:21.699Z,13.88
2019-05-18T16:45:49.932Z,12.70
2019-05-18T16:48:18.157Z,14.85
2019-05-18T16:50:46.652Z,13.13
2019-05-18T16:53:15.589Z,11.85
2019-05-18T16:55:43.905Z,13.83
2019-05-18T16:58:12.119Z,14.30
2019-05-18T17:00:40.338Z,13.60
2019-05-18T17:03:08.567Z,13.13
2019-05-18T17:05:36.992Z,13.33
2019-05-18T17:08:05.727Z,14.80
2019-05-18T17:10:34.008Z,15.60
2019-05-18T17:13:02.244Z,14.68
2019-05-18T17:15:30.468Z,14.58
2019-05-18T17:17:58.844Z,14.03
2019-05-18T17:20:27.814Z,14.07
2019-05-18T17:22:56.076Z,15.40
2019-05-18T17:25:24.505Z,15.20
2019-05-18T17:27:52.705Z,16.95
2019-05-18T17:30:21.009Z,15.25
2019-05-18T17:32:49.214Z,17.45
2019-05-18T17:35:17.452Z,16.23
2019-05-18T17:37:45.680Z,16.37
2019-05-18T17:40:14.071Z,17.48
2019-05-18T17:42:42.289Z,16.27
2019-05-18T17:45:10.514Z,16.85
2019-05-18T17:47:38.784Z,17.10
2019-05-18T17:50:10.424Z,18.48
2019-05-18T17:52:38.659Z,15.57
2019-05-18T17:55:06.960Z,16.67
2019-05-18T17:57:35.177Z,18.50
2019-05-18T18:00:04.953Z,16.85
2019-05-18T18:02:33.450Z,18.10
2019-05-18T18:05:01.678Z,17.80
2019-05-18T18:07:29.933Z,17.32
2019-05-18T18:09:58.161Z,16.62
2019-05-18T18:12:26.364Z,17.67
2019-05-18T18:14:54.585Z,15.80
2019-05-18T18:17:22.832Z,16.27
2019-05-18T18:19:51.104Z,16.70
2019-05-18T18:22:19.278Z,17.98
2019-05-18T18:24:47.663Z,19.05
2019-05-18T18:27:24.739Z,18.90
2019-05-18T18:29:45.873Z,23.55
2019-05-18T18:32:14.289Z,19.12
2019-05-18T18:34:42.501Z,21.73
2019-05-18T18:37:10.802Z,22.17
2019-05-18T18:39:39.043Z,24.57
2019-05-18T18:42:07.353Z,21.37
2019-05-18T18:44:35.625Z,23.20
2019-05-18T18:47:03.851Z,21.65
2019-05-18T18:49:32.188Z,21.93
2019-05-18T18:52:00.433Z,22.13
2019-05-18T18:54:28.621Z,21.93
2019-05-18T18:56:56.910Z,23.70
2019-05-18T18:59:25.193Z,24.20
2019-05-18T19:01:53.411Z,22.30
2019-05-18T19:04:21.648Z,22.00
2019-05-18T19:06:49.871Z,24.67
2019-05-18T19:09:18.088Z,23.47
2019-05-18T19:11:46.358Z,24.77
2019-05-18T19:14:14.590Z,25.43
2019-05-18T19:16:42.801Z,24.12
2019-05-18T19:19:11.018Z,24.50
2019-05-18T19:21:39.257Z,25.10
2019-05-18T19:24:07.483Z,25.23
2019-05-18T19:26:35.824Z,25.03
2019-05-18T19:29:04.030Z,25.23
2019-05-18T19:31:32.341Z,23.57
2019-05-18T19:34:00.567Z,26.90
2019-05-18T19:36:28.799Z,26.50
2019-05-18T19:38:57.037Z,25.43
2019-05-18T19:41:25.928Z,28.83
2019-05-18T19:43:54.754Z,28.73
2019-05-18T19:46:22.961Z,25.97
2019-05-18T19:48:51.188Z,27.17
2019-05-18T19:51:19.582Z,27.85
2019-05-18T19:53:47.847Z,27.07
2019-05-18T19:56:16.063Z,26.82
2019-05-18T19:58:44.324Z,25.92
2019-05-18T20:01:12.891Z,28.20
2019-05-18T20:03:41.066Z,27.15
2019-05-18T20:06:09.334Z,28.90
2019-05-18T20:08:37.568Z,25.37
2019-05-18T20:11:06.225Z,27.37
2019-05-18T20:13:34.466Z,27.95
2019-05-18T20:16:02.957Z,30.30
2019-05-18T20:18:31.260Z,28.65
2019-05-18T20:20:59.512Z,28.87
2019-05-18T20:23:27.739Z,28.50
2019-05-18T20:25:55.954Z,28.50
2019-05-18T20:28:24.459Z,28.15
2019-05-18T20:30:52.711Z,29.50
2019-05-18T20:33:20.984Z,28.92
2019-05-18T20:35:49.183Z,29.45
2019-05-18T20:38:17.401Z,31.05
2019-05-18T20:40:45.673Z,31.20
2019-05-18T20:43:14.008Z,30.90
2019-05-18T20:45:42.274Z,26.05
2019-05-18T20:48:10.519Z,28.65
2019-05-18T20:50:38.740Z,29.90
2019-05-18T20:53:06.986Z,29.52
2019-05-18T20:55:35.207Z,34.80
2019-05-18T20:58:03.455Z,30.32
2019-05-18T21:00:31.651Z,32.73
2019-05-18T21:02:59.906Z,31.02
2019-05-18T21:05:28.113Z,28.90
2019-05-18T21:07:56.340Z,34.13
2019-05-18T21:10:24.582Z,31.02
2019-05-18T21:12:52.876Z,31.75
2019-05-18T21:15:21.043Z,32.28
2019-05-18T21:17:49.278Z,34.83
2019-05-18T21:20:17.512Z,35.58
2019-05-18T21:22:45.776Z,32.55
2019-05-18T21:25:14.064Z,34.85
2019-05-18T21:27:42.322Z,34.10
2019-05-18T21:30:10.562Z,35.92
2019-05-18T21:32:38.793Z,33.85
2019-05-18T21:35:07.416Z,36.68
2019-05-18T21:37:35.591Z,35.80
2019-05-18T21:40:05.466Z,34.60
2019-05-18T21:42:33.670Z,33.35
2019-05-18T21:45:02.247Z,34.95
2019-05-18T21:47:30.643Z,34.37
2019-05-18T21:49:59.048Z,35.88
2019-05-18T21:52:27.265Z,35.43
2019-05-18T21:54:55.522Z,35.23
2019-05-18T21:57:23.880Z,35.88
2019-05-18T21:59:52.211Z,38.53
2019-05-18T22:02:20.430Z,39.60
2019-05-18T22:04:48.666Z,37.00
2019-05-18T22:07:16.901Z,38.60
2019-05-18T22:09:45.118Z,38.92
2019-05-18T22:12:13.556Z,37.50
2019-05-18T22:14:41.785Z,39.05
2019-05-18T22:17:09.988Z,36.45
2019-05-18T22:19:38.201Z,38.88
2019-05-18T22:22:06.441Z,40.00
2019-05-18T22:24:34.851Z,35.75
2019-05-18T22:27:03.073Z,39.65
2019-05-18T22:29:31.302Z,39.27
2019-05-18T22:31:59.558Z,37.93
2019-05-18T22:34:27.768Z,39.98
2019-05-18T22:36:56.020Z,39.65
2019-05-18T22:39:26.661Z,40.50
2019-05-18T22:41:54.149Z,40.73
2019-05-18T22:44:22.384Z,40.98
2019-05-18T22:46:50.681Z,39.75
2019-05-18T22:49:18.904Z,39.95
2019-05-18T22:51:47.124Z,43.10
2019-05-18T22:54:15.344Z,42.83
2019-05-18T22:56:43.583Z,41.85
2019-05-18T22:59:11.842Z,42.50
2019-05-18T23:01:40.069Z,40.35
2019-05-18T23:04:08.291Z,44.23
2019-05-18T23:06:36.542Z,42.80
2019-05-18T23:09:06.005Z,45.10
2019-05-18T23:11:34.202Z,46.23
2019-05-18T23:14:02.437Z,46.13
2019-05-18T23:16:30.638Z,48.58
2019-05-18T23:18:58.850Z,46.58
2019-05-18T23:21:34.495Z,45.15
2019-05-18T23:24:02.817Z,49.88
2019-05-18T23:26:31.237Z,50.97
2019-05-18T23:28:59.542Z,49.95
2019-05-18T23:31:27.764Z,52.98
2019-05-18T23:33:55.993Z,49.58
2019-05-18T23:36:24.226Z,50.12
2019-05-18T23:38:52.582Z,49.55
2019-05-18T23:41:20.795Z,52.88
2019-05-18T23:43:48.980Z,54.18
2019-05-18T23:46:17.291Z,51.95
2019-05-18T23:48:45.489Z,55.70
2019-05-18T23:51:13.725Z,56.13
2019-05-18T23:53:42.051Z,50.90
2019-05-18T23:56:10.264Z,57.90
2019-05-18T23:58:38.489Z,53.20
